sensor_id;sensor_type;location;lat;lon;timestamp;pressure;altitude;pressure_sealevel;temperature;humidity
23619;BME280;18207;32.078;34.818;2023-04-06T00:01:19;101186.22;;;25.84;38.01
23619;BME280;18207;32.078;34.818;2023-04-06T00:03:49;101184.09;;;25.81;38.09
23619;BME280;18207;32.078;34.818;2023-04-06T00:06:22;101188.47;;;25.79;38.07
23619;BME280;18207;32.078;34.818;2023-04-06T00:08:53;101186.31;;;25.76;38.41
23619;BME280;18207;32.078;34.818;2023-04-06T00:11:24;101189.50;;;25.74;38.00
23619;BME280;18207;32.078;34.818;2023-04-06T00:13:55;101178.59;;;25.73;38.07
23619;BME280;18207;32.078;34.818;2023-04-06T00:16:26;101170.50;;;25.71;38.11
23619;BME280;18207;32.078;34.818;2023-04-06T00:18:57;101184.97;;;25.70;38.15
23619;BME280;18207;32.078;34.818;2023-04-06T00:21:29;101184.97;;;25.70;38.18
23619;BME280;18207;32.078;34.818;2023-04-06T00:24:00;101184.50;;;25.68;38.27
23619;BME280;18207;32.078;34.818;2023-04-06T00:26:32;101180.84;;;25.67;38.27
23619;BME280;18207;32.078;34.818;2023-04-06T00:29:02;101181.22;;;25.66;38.29
23619;BME280;18207;32.078;34.818;2023-04-06T00:31:32;101169.50;;;25.64;38.20
23619;BME280;18207;32.078;34.818;2023-04-06T00:34:03;101177.13;;;25.63;38.39
23619;BME280;18207;32.078;34.818;2023-04-06T00:36:35;101174.66;;;25.62;38.15
23619;BME280;18207;32.078;34.818;2023-04-06T00:39:06;101171.41;;;25.60;38.17
23619;BME280;18207;32.078;34.818;2023-04-06T00:41:36;101175.41;;;25.59;38.38
23619;BME280;18207;32.078;34.818;2023-04-06T00:44:07;101174.56;;;25.58;38.04
23619;BME280;18207;32.078;34.818;2023-04-06T00:46:38;101178.09;;;25.55;38.02
23619;BME280;18207;32.078;34.818;2023-04-06T00:49:09;101178.44;;;25.54;38.15
23619;BME280;18207;32.078;34.818;2023-04-06T00:51:41;101175.16;;;25.52;38.11
23619;BME280;18207;32.078;34.818;2023-04-06T00:54:11;101180.69;;;25.48;38.34
23619;BME280;18207;32.078;34.818;2023-04-06T00:56:42;101174.59;;;25.46;38.14
23619;BME280;18207;32.078;34.818;2023-04-06T00:59:13;101179.81;;;25.44;38.20
23619;BME280;18207;32.078;34.818;2023-04-06T01:01:46;101177.31;;;25.43;38.41
23619;BME280;18207;32.078;34.818;2023-04-06T01:04:16;101172.44;;;25.40;38.17
23619;BME280;18207;32.078;34.818;2023-04-06T01:06:48;101172.44;;;25.40;38.42
23619;BME280;18207;32.078;34.818;2023-04-06T01:09:18;101173.59;;;25.39;38.39
23619;BME280;18207;32.078;34.818;2023-04-06T01:11:49;101173.94;;;25.37;38.24
23619;BME280;18207;32.078;34.818;2023-04-06T01:14:20;101165.06;;;25.35;38.54
23619;BME280;18207;32.078;34.818;2023-04-06T01:16:51;101166.56;;;25.33;38.51
23619;BME280;18207;32.078;34.818;2023-04-06T01:19:22;101160.47;;;25.31;38.52
23619;BME280;18207;32.078;34.818;2023-04-06T01:21:56;101158.88;;;25.30;38.81
23619;BME280;18207;32.078;34.818;2023-04-06T01:24:28;101166.47;;;25.29;38.88
23619;BME280;18207;32.078;34.818;2023-04-06T01:26:58;101164.38;;;25.26;38.71
23619;BME280;18207;32.078;34.818;2023-04-06T01:29:28;101164.38;;;25.26;38.45
23619;BME280;18207;32.078;34.818;2023-04-06T01:31:58;101158.31;;;25.24;38.54
23619;BME280;18207;32.078;34.818;2023-04-06T01:34:29;101165.44;;;25.22;38.63
23619;BME280;18207;32.078;34.818;2023-04-06T01:36:59;101157.38;;;25.20;38.61
23619;BME280;18207;32.078;34.818;2023-04-06T01:39:31;101154.94;;;25.19;38.64
23619;BME280;18207;32.078;34.818;2023-04-06T01:42:02;101158.06;;;25.17;38.77
23619;BME280;18207;32.078;34.818;2023-04-06T01:44:33;101151.66;;;25.17;38.55
23619;BME280;18207;32.078;34.818;2023-04-06T01:47:04;101151.16;;;25.15;38.91
23619;BME280;18207;32.078;34.818;2023-04-06T01:49:34;101151.53;;;25.13;39.07
23619;BME280;18207;32.078;34.818;2023-04-06T01:52:04;101146.63;;;25.10;39.07
23619;BME280;18207;32.078;34.818;2023-04-06T01:54:37;101150.94;;;25.08;38.96
23619;BME280;18207;32.078;34.818;2023-04-06T01:57:08;101146.84;;;25.06;38.86
23619;BME280;18207;32.078;34.818;2023-04-06T01:59:38;101148.03;;;25.05;38.88
23619;BME280;18207;32.078;34.818;2023-04-06T02:02:08;101148.34;;;25.03;39.03
23619;BME280;18207;32.078;34.818;2023-04-06T02:04:40;101142.28;;;25.01;38.90
23619;BME280;18207;32.078;34.818;2023-04-06T02:07:11;101147.09;;;25.01;39.02
23619;BME280;18207;32.078;34.818;2023-04-06T02:09:43;101140.66;;;25.00;39.00
23619;BME280;18207;32.078;34.818;2023-04-06T02:12:13;101139.00;;;24.99;39.02
23619;BME280;18207;32.078;34.818;2023-04-06T02:14:43;101143.81;;;24.99;38.98
23619;BME280;18207;32.078;34.818;2023-04-06T02:17:14;101143.81;;;24.99;39.25
23619;BME280;18207;32.078;34.818;2023-04-06T02:19:45;101139.34;;;24.98;39.56
23619;BME280;18207;32.078;34.818;2023-04-06T02:22:15;101132.09;;;24.97;39.17
23619;BME280;18207;32.078;34.818;2023-04-06T02:24:47;101134.09;;;24.96;39.36
23619;BME280;18207;32.078;34.818;2023-04-06T02:27:17;101144.88;;;24.94;39.18
23619;BME280;18207;32.078;34.818;2023-04-06T02:29:47;101148.53;;;24.95;39.48
23619;BME280;18207;32.078;34.818;2023-04-06T02:32:18;101146.03;;;24.93;39.36
23619;BME280;18207;32.078;34.818;2023-04-06T02:34:48;101152.84;;;24.92;39.03
23619;BME280;18207;32.078;34.818;2023-04-06T02:37:19;101148.75;;;24.90;39.34
23619;BME280;18207;32.078;34.818;2023-04-06T02:39:51;101149.13;;;24.88;39.22
23619;BME280;18207;32.078;34.818;2023-04-06T02:42:22;101148.19;;;24.84;39.21
23619;BME280;18207;32.078;34.818;2023-04-06T02:44:51;101153.31;;;24.82;39.11
23619;BME280;18207;32.078;34.818;2023-04-06T02:47:23;101151.72;;;24.81;39.13
23619;BME280;18207;32.078;34.818;2023-04-06T02:49:54;101151.25;;;24.79;39.58
23619;BME280;18207;32.078;34.818;2023-04-06T02:52:25;101155.22;;;24.78;39.30
23619;BME280;18207;32.078;34.818;2023-04-06T02:54:57;101152.78;;;24.77;39.31
23619;BME280;18207;32.078;34.818;2023-04-06T02:57:28;101155.94;;;24.75;39.45
23619;BME280;18207;32.078;34.818;2023-04-06T02:59:58;101152.66;;;24.73;39.60
23619;BME280;18207;32.078;34.818;2023-04-06T03:02:28;101157.47;;;24.73;39.68
23619;BME280;18207;32.078;34.818;2023-04-06T03:04:58;101153.81;;;24.72;39.38
23619;BME280;18207;32.078;34.818;2023-04-06T03:07:31;101160.63;;;24.71;39.54
23619;BME280;18207;32.078;34.818;2023-04-06T03:10:04;101160.63;;;24.71;39.59
23619;BME280;18207;32.078;34.818;2023-04-06T03:12:35;101154.53;;;24.69;39.65
23619;BME280;18207;32.078;34.818;2023-04-06T03:15:07;101152.91;;;24.68;39.78
23619;BME280;18207;32.078;34.818;2023-04-06T03:17:38;101150.47;;;24.67;39.55
23619;BME280;18207;32.078;34.818;2023-04-06T03:20:09;101148.81;;;24.66;39.56
23619;BME280;18207;32.078;34.818;2023-04-06T03:22:40;101158.75;;;24.63;39.43
23619;BME280;18207;32.078;34.818;2023-04-06T03:25:13;101158.75;;;24.63;39.43
23619;BME280;18207;32.078;34.818;2023-04-06T03:27:43;101159.13;;;24.62;39.53
23619;BME280;18207;32.078;34.818;2023-04-06T03:30:14;101169.56;;;24.61;39.87
23619;BME280;18207;32.078;34.818;2023-04-06T03:32:45;101167.06;;;24.60;39.79
23619;BME280;18207;32.078;34.818;2023-04-06T03:35:16;101165.44;;;24.59;39.77
23619;BME280;18207;32.078;34.818;2023-04-06T03:37:46;101165.78;;;24.57;39.88
23619;BME280;18207;32.078;34.818;2023-04-06T03:40:19;101167.78;;;24.57;39.96
23619;BME280;18207;32.078;34.818;2023-04-06T03:42:50;101169.28;;;24.54;39.88
23619;BME280;18207;32.078;34.818;2023-04-06T03:45:20;101175.66;;;24.51;39.99
23619;BME280;18207;32.078;34.818;2023-04-06T03:47:51;101185.25;;;24.50;39.86
23619;BME280;18207;32.078;34.818;2023-04-06T03:50:21;101177.16;;;24.49;39.90
23619;BME280;18207;32.078;34.818;2023-04-06T03:52:52;101192.38;;;24.48;40.03
23619;BME280;18207;32.078;34.818;2023-04-06T03:55:24;101178.69;;;24.46;39.63
23619;BME280;18207;32.078;34.818;2023-04-06T03:57:55;101184.66;;;24.45;39.94
23619;BME280;18207;32.078;34.818;2023-04-06T04:00:26;101184.97;;;24.43;40.22
23619;BME280;18207;32.078;34.818;2023-04-06T04:02:57;101186.16;;;24.42;39.96
23619;BME280;18207;32.078;34.818;2023-04-06T04:05:28;101188.97;;;24.42;40.14
23619;BME280;18207;32.078;34.818;2023-04-06T04:07:59;101190.13;;;24.41;40.03
23619;BME280;18207;32.078;34.818;2023-04-06T04:10:32;101191.28;;;24.40;40.00
23619;BME280;18207;32.078;34.818;2023-04-06T04:13:02;101191.28;;;24.40;40.06
23619;BME280;18207;32.078;34.818;2023-04-06T04:15:32;101192.47;;;24.39;40.19
23619;BME280;18207;32.078;34.818;2023-04-06T04:18:03;101200.06;;;24.39;40.48
23619;BME280;18207;32.078;34.818;2023-04-06T04:20:34;101200.41;;;24.37;40.09
23619;BME280;18207;32.078;34.818;2023-04-06T04:23:04;101201.22;;;24.38;40.13
23619;BME280;18207;32.078;34.818;2023-04-06T04:25:36;101200.41;;;24.37;40.61
23619;BME280;18207;32.078;34.818;2023-04-06T04:28:06;101195.50;;;24.34;39.97
23619;BME280;18207;32.078;34.818;2023-04-06T04:30:37;101202.28;;;24.33;40.39
23619;BME280;18207;32.078;34.818;2023-04-06T04:33:07;101197.84;;;24.32;40.13
23619;BME280;18207;32.078;34.818;2023-04-06T04:35:38;101193.41;;;24.31;40.45
23619;BME280;18207;32.078;34.818;2023-04-06T04:38:08;101196.53;;;24.30;40.55
23619;BME280;18207;32.078;34.818;2023-04-06T04:40:41;101200.19;;;24.30;40.70
23619;BME280;18207;32.078;34.818;2023-04-06T04:43:11;101204.63;;;24.31;40.60
23619;BME280;18207;32.078;34.818;2023-04-06T04:45:41;101197.03;;;24.32;40.77
23619;BME280;18207;32.078;34.818;2023-04-06T04:48:11;101203.47;;;24.32;40.83
23619;BME280;18207;32.078;34.818;2023-04-06T04:50:41;101201.94;;;24.35;40.65
23619;BME280;18207;32.078;34.818;2023-04-06T04:53:11;101200.41;;;24.37;41.00
23619;BME280;18207;32.078;34.818;2023-04-06T04:55:43;101202.88;;;24.39;40.48
23619;BME280;18207;32.078;34.818;2023-04-06T04:58:13;101196.56;;;24.42;40.67
23619;BME280;18207;32.078;34.818;2023-04-06T05:00:44;101187.75;;;24.43;40.97
23619;BME280;18207;32.078;34.818;2023-04-06T05:03:20;101191.91;;;24.46;40.97
23619;BME280;18207;32.078;34.818;2023-04-06T05:05:51;101187.56;;;24.48;40.96
23619;BME280;18207;32.078;34.818;2023-04-06T05:08:22;101190.88;;;24.50;41.19
23619;BME280;18207;32.078;34.818;2023-04-06T05:10:55;101192.94;;;24.53;40.77
23619;BME280;18207;32.078;34.818;2023-04-06T05:13:25;101189.44;;;24.56;41.08
23619;BME280;18207;32.078;34.818;2023-04-06T05:15:55;101192.38;;;24.60;41.16
23619;BME280;18207;32.078;34.818;2023-04-06T05:18:26;101192.47;;;24.63;40.92
23619;BME280;18207;32.078;34.818;2023-04-06T05:21:03;101193.41;;;24.67;41.28
23619;BME280;18207;32.078;34.818;2023-04-06T05:23:40;101191.56;;;24.71;40.97
23619;BME280;18207;32.078;34.818;2023-04-06T05:26:13;101196.56;;;24.78;40.96
23619;BME280;18207;32.078;34.818;2023-04-06T05:28:43;101205.94;;;24.82;41.19
23619;BME280;18207;32.078;34.818;2023-04-06T05:31:14;101213.78;;;24.88;41.18
23619;BME280;18207;32.078;34.818;2023-04-06T05:33:44;101220.78;;;24.94;41.62
23619;BME280;18207;32.078;34.818;2023-04-06T05:36:14;101214.47;;;24.97;41.31
23619;BME280;18207;32.078;34.818;2023-04-06T05:38:45;101225.47;;;25.02;41.59
23619;BME280;18207;32.078;34.818;2023-04-06T05:41:17;101222.44;;;25.07;41.18
23619;BME280;18207;32.078;34.818;2023-04-06T05:43:47;101225.00;;;25.12;41.33
23619;BME280;18207;32.078;34.818;2023-04-06T05:46:18;101227.59;;;25.17;41.40
23619;BME280;18207;32.078;34.818;2023-04-06T05:48:48;101220.53;;;25.23;41.37
23619;BME280;18207;32.078;34.818;2023-04-06T05:51:19;101218.28;;;25.28;41.53
23619;BME280;18207;32.078;34.818;2023-04-06T05:53:49;101222.53;;;25.34;41.31
23619;BME280;18207;32.078;34.818;2023-04-06T05:56:22;101211.84;;;25.40;41.61
23619;BME280;18207;32.078;34.818;2023-04-06T05:58:53;101223.28;;;25.47;41.61
23619;BME280;18207;32.078;34.818;2023-04-06T06:01:24;101217.38;;;25.52;41.53
23619;BME280;18207;32.078;34.818;2023-04-06T06:03:54;101219.97;;;25.57;41.21
23619;BME280;18207;32.078;34.818;2023-04-06T06:06:24;101218.06;;;25.61;41.38
23619;BME280;18207;32.078;34.818;2023-04-06T06:08:54;101221.34;;;25.63;41.45
23619;BME280;18207;32.078;34.818;2023-04-06T06:11:28;101215.00;;;25.66;41.21
23619;BME280;18207;32.078;34.818;2023-04-06T06:13:58;101215.09;;;25.69;40.94
23619;BME280;18207;32.078;34.818;2023-04-06T06:16:28;101224.00;;;25.71;41.01
23619;BME280;18207;32.078;34.818;2023-04-06T06:18:58;101216.84;;;25.74;41.20
23619;BME280;18207;32.078;34.818;2023-04-06T06:21:28;101209.69;;;25.76;40.91
23619;BME280;18207;32.078;34.818;2023-04-06T06:23:59;101219.78;;;25.77;40.66
23619;BME280;18207;32.078;34.818;2023-04-06T06:26:32;101229.88;;;25.78;40.59
23619;BME280;18207;32.078;34.818;2023-04-06T06:29:03;101220.25;;;25.79;40.60
23619;BME280;18207;32.078;34.818;2023-04-06T06:31:35;101219.06;;;25.80;40.69
23619;BME280;18207;32.078;34.818;2023-04-06T06:34:06;101219.88;;;25.81;40.38
23619;BME280;18207;32.078;34.818;2023-04-06T06:36:36;101217.06;;;25.81;40.37
23619;BME280;18207;32.078;34.818;2023-04-06T06:39:07;101225.50;;;25.81;40.23
23619;BME280;18207;32.078;34.818;2023-04-06T06:41:40;101225.97;;;25.83;40.28
23619;BME280;18207;32.078;34.818;2023-04-06T06:44:10;101234.06;;;25.84;40.08
23619;BME280;18207;32.078;34.818;2023-04-06T06:46:41;101226.06;;;25.86;40.31
23619;BME280;18207;32.078;34.818;2023-04-06T06:49:12;101231.78;;;25.90;40.26
23619;BME280;18207;32.078;34.818;2023-04-06T06:51:42;101225.44;;;25.93;40.08
23619;BME280;18207;32.078;34.818;2023-04-06T06:54:13;101226.38;;;25.97;40.09
23619;BME280;18207;32.078;34.818;2023-04-06T06:56:46;101222.00;;;25.99;40.33
23619;BME280;18207;32.078;34.818;2023-04-06T06:59:17;101224.94;;;26.02;40.56
23619;BME280;18207;32.078;34.818;2023-04-06T07:01:47;101226.66;;;26.07;40.06
23619;BME280;18207;32.078;34.818;2023-04-06T07:04:17;101221.94;;;26.11;40.01
23619;BME280;18207;32.078;34.818;2023-04-06T07:06:47;101224.13;;;26.17;40.01
23619;BME280;18207;32.078;34.818;2023-04-06T07:09:19;101224.22;;;26.21;40.07
23619;BME280;18207;32.078;34.818;2023-04-06T07:11:52;101224.31;;;26.24;39.80
23619;BME280;18207;32.078;34.818;2023-04-06T07:48:25;101241.31;;;23.50;42.39
23619;BME280;18207;32.078;34.818;2023-04-06T07:51:02;101235.13;;;23.97;42.43
23619;BME280;18207;32.078;34.818;2023-04-06T07:53:33;101236.94;;;24.37;41.87
23619;BME280;18207;32.078;34.818;2023-04-06T07:56:03;101237.34;;;24.72;41.83
23619;BME280;18207;32.078;34.818;2023-04-06T07:58:34;101232.72;;;25.03;41.49
23619;BME280;18207;32.078;34.818;2023-04-06T08:01:04;101235.19;;;25.28;40.80
23619;BME280;18207;32.078;34.818;2023-04-06T08:03:37;101233.00;;;25.49;40.67
23619;BME280;18207;32.078;34.818;2023-04-06T08:06:07;101233.16;;;25.68;40.37
23619;BME280;18207;32.078;34.818;2023-04-06T08:08:38;101234.97;;;25.88;40.39
23619;BME280;18207;32.078;34.818;2023-04-06T08:11:09;101239.94;;;26.06;40.59
23619;BME280;18207;32.078;34.818;2023-04-06T08:13:39;101233.59;;;26.25;40.51
23619;BME280;18207;32.078;34.818;2023-04-06T08:16:11;101233.28;;;26.42;40.33
23619;BME280;18207;32.078;34.818;2023-04-06T08:18:43;101238.53;;;26.59;40.36
23619;BME280;18207;32.078;34.818;2023-04-06T08:21:14;101238.53;;;26.74;40.20
23619;BME280;18207;32.078;34.818;2023-04-06T08:23:45;101236.03;;;26.88;39.83
23619;BME280;18207;32.078;34.818;2023-04-06T08:26:16;101242.06;;;27.02;39.90
23619;BME280;18207;32.078;34.818;2023-04-06T08:28:46;101231.47;;;27.14;40.15
23619;BME280;18207;32.078;34.818;2023-04-06T08:31:16;101242.25;;;27.28;39.82
23619;BME280;18207;32.078;34.818;2023-04-06T08:33:48;101251.44;;;27.40;39.87
23619;BME280;18207;32.078;34.818;2023-04-06T08:36:18;101250.47;;;27.52;39.71
23619;BME280;18207;32.078;34.818;2023-04-06T08:38:50;101253.50;;;27.62;39.56
23619;BME280;18207;32.078;34.818;2023-04-06T08:41:21;101263.81;;;27.70;39.59
23619;BME280;18207;32.078;34.818;2023-04-06T08:43:58;101258.38;;;27.80;39.33
23619;BME280;18207;32.078;34.818;2023-04-06T08:46:30;101261.00;;;27.89;39.47
23619;BME280;18207;32.078;34.818;2023-04-06T08:49:03;101253.44;;;27.96;39.22
23619;BME280;18207;32.078;34.818;2023-04-06T08:51:37;101262.09;;;28.03;38.91
23619;BME280;18207;32.078;34.818;2023-04-06T08:54:07;101257.75;;;28.09;38.97
23619;BME280;18207;32.078;34.818;2023-04-06T08:56:40;101258.72;;;28.17;38.96
23619;BME280;18207;32.078;34.818;2023-04-06T08:59:11;101261.69;;;28.24;39.04
23619;BME280;18207;32.078;34.818;2023-04-06T09:01:44;101270.31;;;28.31;39.02
23619;BME280;18207;32.078;34.818;2023-04-06T09:04:18;101262.34;;;28.36;38.82
23619;BME280;18207;32.078;34.818;2023-04-06T09:06:49;101266.50;;;28.42;38.81
23619;BME280;18207;32.078;34.818;2023-04-06T09:09:20;101268.19;;;28.47;38.56
23619;BME280;18207;32.078;34.818;2023-04-06T09:11:53;101269.06;;;28.51;38.20
23619;BME280;18207;32.078;34.818;2023-04-06T09:14:35;101254.97;;;28.54;38.18
23619;BME280;18207;32.078;34.818;2023-04-06T09:17:07;101260.28;;;28.56;38.31
23619;BME280;18207;32.078;34.818;2023-04-06T09:19:48;101259.94;;;28.61;38.45
23619;BME280;18207;32.078;34.818;2023-04-06T09:22:19;101253.94;;;28.62;38.43
23619;BME280;18207;32.078;34.818;2023-04-06T09:24:52;101255.19;;;28.64;38.07
23619;BME280;18207;32.078;34.818;2023-04-06T09:27:31;101256.03;;;28.68;38.38
23619;BME280;18207;32.078;34.818;2023-04-06T09:30:07;101254.94;;;28.73;38.06
23619;BME280;18207;32.078;34.818;2023-04-06T09:32:49;101256.19;;;28.75;38.23
23619;BME280;18207;32.078;34.818;2023-04-06T09:35:23;101256.25;;;28.79;38.57
23619;BME280;18207;32.078;34.818;2023-04-06T09:37:54;101254.69;;;28.81;38.00
23619;BME280;18207;32.078;34.818;2023-04-06T09:40:25;101249.91;;;28.85;37.77
23619;BME280;18207;32.078;34.818;2023-04-06T09:42:57;101251.16;;;28.88;38.11
23619;BME280;18207;32.078;34.818;2023-04-06T09:45:30;101244.31;;;28.89;37.91
23619;BME280;18207;32.078;34.818;2023-04-06T09:48:03;101242.72;;;28.91;37.97
23619;BME280;18207;32.078;34.818;2023-04-06T09:50:36;101242.78;;;28.95;37.74
23619;BME280;18207;32.078;34.818;2023-04-06T09:53:08;101248.06;;;28.96;37.78
23619;BME280;18207;32.078;34.818;2023-04-06T09:55:42;101250.50;;;28.98;37.71
23619;BME280;18207;32.078;34.818;2023-04-06T09:58:16;101240.00;;;28.98;37.67
23619;BME280;18207;32.078;34.818;2023-04-06T10:00:59;101236.81;;;29.00;37.77
23619;BME280;18207;32.078;34.818;2023-04-06T10:03:45;101240.44;;;29.00;37.48
23619;BME280;18207;32.078;34.818;2023-04-06T10:06:23;101238.44;;;29.01;37.47
23619;BME280;18207;32.078;34.818;2023-04-06T10:08:57;101233.59;;;29.01;37.26
23619;BME280;18207;32.078;34.818;2023-04-06T10:11:29;101234.41;;;29.02;37.46
23619;BME280;18207;32.078;34.818;2023-04-06T10:13:59;101230.34;;;29.03;37.00
23619;BME280;18207;32.078;34.818;2023-04-06T10:16:31;101233.63;;;29.05;37.43
23619;BME280;18207;32.078;34.818;2023-04-06T10:19:16;101231.63;;;29.05;37.12
23619;BME280;18207;32.078;34.818;2023-04-06T10:21:54;101230.44;;;29.06;37.17
23619;BME280;18207;32.078;34.818;2023-04-06T10:24:28;101237.75;;;29.07;37.21
23619;BME280;18207;32.078;34.818;2023-04-06T10:27:01;101233.69;;;29.08;37.39
23619;BME280;18207;32.078;34.818;2023-04-06T10:29:46;101240.97;;;29.09;37.59
23619;BME280;18207;32.078;34.818;2023-04-06T10:32:16;101239.34;;;29.08;37.38
23619;BME280;18207;32.078;34.818;2023-04-06T10:34:46;101233.31;;;29.10;37.29
23619;BME280;18207;32.078;34.818;2023-04-06T10:37:18;101240.63;;;29.11;37.35
23619;BME280;18207;32.078;34.818;2023-04-06T10:39:53;101236.94;;;29.10;37.26
23619;BME280;18207;32.078;34.818;2023-04-06T10:42:36;101224.81;;;29.10;37.29
23619;BME280;18207;32.078;34.818;2023-04-06T10:45:19;101220.34;;;29.09;37.32
23619;BME280;18207;32.078;34.818;2023-04-06T10:47:52;101213.50;;;29.10;37.28
23619;BME280;18207;32.078;34.818;2023-04-06T10:50:24;101224.81;;;29.10;37.37
23619;BME280;18207;32.078;34.818;2023-04-06T10:53:03;101220.78;;;29.11;37.48
23619;BME280;18207;32.078;34.818;2023-04-06T10:55:38;101219.53;;;29.08;36.98
23619;BME280;18207;32.078;34.818;2023-04-06T10:58:09;101216.69;;;29.08;36.90
23619;BME280;18207;32.078;34.818;2023-04-06T11:00:45;101219.91;;;29.07;37.04
23619;BME280;18207;32.078;34.818;2023-04-06T11:03:18;101213.00;;;29.04;36.73
23619;BME280;18207;32.078;34.818;2023-04-06T11:05:50;101212.19;;;29.04;36.73
23619;BME280;18207;32.078;34.818;2023-04-06T11:08:30;101205.28;;;29.01;36.61
23619;BME280;18207;32.078;34.818;2023-04-06T11:11:10;101204.84;;;28.99;36.74
23619;BME280;18207;32.078;34.818;2023-04-06T11:13:45;101202.41;;;28.98;36.71
23619;BME280;18207;32.078;34.818;2023-04-06T11:16:18;101196.28;;;28.96;36.73
23619;BME280;18207;32.078;34.818;2023-04-06T11:18:53;101190.63;;;28.96;36.59
23619;BME280;18207;32.078;34.818;2023-04-06T11:21:35;101189.84;;;28.95;36.60
23619;BME280;18207;32.078;34.818;2023-04-06T11:24:11;101191.41;;;28.93;36.37
23619;BME280;18207;32.078;34.818;2023-04-06T11:26:44;101173.59;;;28.92;36.44
23619;BME280;18207;32.078;34.818;2023-04-06T11:29:17;101175.63;;;28.92;36.29
23619;BME280;18207;32.078;34.818;2023-04-06T11:31:50;101161.84;;;28.90;36.50
23619;BME280;18207;32.078;34.818;2023-04-06T11:34:22;101170.34;;;28.90;36.33
23619;BME280;18207;32.078;34.818;2023-04-06T11:36:57;101163.88;;;28.90;36.52
23619;BME280;18207;32.078;34.818;2023-04-06T11:39:29;101170.72;;;28.89;36.57
23619;BME280;18207;32.078;34.818;2023-04-06T11:42:01;101162.63;;;28.87;36.35
23619;BME280;18207;32.078;34.818;2023-04-06T11:44:37;101156.53;;;28.85;36.57
23619;BME280;18207;32.078;34.818;2023-04-06T11:47:10;101152.88;;;28.85;36.29
23619;BME280;18207;32.078;34.818;2023-04-06T11:49:43;101158.53;;;28.85;36.37
23619;BME280;18207;32.078;34.818;2023-04-06T11:52:19;101146.78;;;28.83;36.30
23619;BME280;18207;32.078;34.818;2023-04-06T11:54:53;101146.78;;;28.83;36.42
23619;BME280;18207;32.078;34.818;2023-04-06T11:57:25;101143.53;;;28.81;36.43
23619;BME280;18207;32.078;34.818;2023-04-06T11:59:56;101139.88;;;28.80;36.31
23619;BME280;18207;32.078;34.818;2023-04-06T12:02:26;101137.03;;;28.80;36.17
23619;BME280;18207;32.078;34.818;2023-04-06T12:04:57;101129.72;;;28.79;36.54
23619;BME280;18207;32.078;34.818;2023-04-06T12:07:29;101126.06;;;28.79;36.28
23619;BME280;18207;32.078;34.818;2023-04-06T12:10:03;101119.25;;;28.80;36.21
23619;BME280;18207;32.078;34.818;2023-04-06T12:12:34;101126.47;;;28.77;36.56
23619;BME280;18207;32.078;34.818;2023-04-06T12:15:07;101126.84;;;28.76;36.38
23619;BME280;18207;32.078;34.818;2023-04-06T12:17:37;101130.84;;;28.75;36.48
23619;BME280;18207;32.078;34.818;2023-04-06T12:20:10;101130.06;;;28.74;36.49
23619;BME280;18207;32.078;34.818;2023-04-06T12:22:53;101128.81;;;28.72;36.21
23619;BME280;18207;32.078;34.818;2023-04-06T12:25:25;101130.00;;;28.71;35.92
23619;BME280;18207;32.078;34.818;2023-04-06T12:27:56;101119.88;;;28.70;36.44
23619;BME280;18207;32.078;34.818;2023-04-06T12:30:27;101114.59;;;28.68;36.43
23619;BME280;18207;32.078;34.818;2023-04-06T12:32:58;101111.75;;;28.68;36.32
23619;BME280;18207;32.078;34.818;2023-04-06T12:35:33;101098.84;;;28.67;36.27
23619;BME280;18207;32.078;34.818;2023-04-06T12:38:03;101106.06;;;28.65;36.16
23619;BME280;18207;32.078;34.818;2023-04-06T12:40:39;101103.63;;;28.63;36.29
23619;BME280;18207;32.078;34.818;2023-04-06T12:43:10;101106.00;;;28.62;36.24
23619;BME280;18207;32.078;34.818;2023-04-06T12:45:41;101099.09;;;28.59;36.34
23619;BME280;18207;32.078;34.818;2023-04-06T12:48:11;101106.34;;;28.57;36.22
23619;BME280;18207;32.078;34.818;2023-04-06T12:50:41;101106.34;;;28.57;35.90
23619;BME280;18207;32.078;34.818;2023-04-06T12:53:12;101107.53;;;28.56;36.22
23619;BME280;18207;32.078;34.818;2023-04-06T12:55:44;101107.91;;;28.54;36.13
23619;BME280;18207;32.078;34.818;2023-04-06T12:58:14;101108.28;;;28.53;36.22
23619;BME280;18207;32.078;34.818;2023-04-06T13:00:45;101113.50;;;28.51;36.00
23619;BME280;18207;32.078;34.818;2023-04-06T13:03:16;101116.72;;;28.49;35.96
23619;BME280;18207;32.078;34.818;2023-04-06T13:05:47;101122.78;;;28.48;36.07
23619;BME280;18207;32.078;34.818;2023-04-06T13:08:19;101110.63;;;28.47;36.73
23619;BME280;18207;32.078;34.818;2023-04-06T13:10:53;101102.91;;;28.44;36.16
23619;BME280;18207;32.078;34.818;2023-04-06T13:13:24;101100.47;;;28.43;36.11
23619;BME280;18207;32.078;34.818;2023-04-06T13:16:01;101118.19;;;28.40;36.43
23619;BME280;18207;32.078;34.818;2023-04-06T13:18:32;101112.47;;;28.36;36.25
23619;BME280;18207;32.078;34.818;2023-04-06T13:21:02;101109.19;;;28.34;36.17
23619;BME280;18207;32.078;34.818;2023-04-06T13:23:33;101107.59;;;28.33;36.00
23619;BME280;18207;32.078;34.818;2023-04-06T13:26:07;101103.13;;;28.32;36.22
23619;BME280;18207;32.078;34.818;2023-04-06T13:28:37;101098.22;;;28.29;36.32
23619;BME280;18207;32.078;34.818;2023-04-06T13:31:09;101101.44;;;28.28;36.18
23619;BME280;18207;32.078;34.818;2023-04-06T13:33:39;101095.78;;;28.28;36.37
23619;BME280;18207;32.078;34.818;2023-04-06T13:36:10;101096.16;;;28.26;36.37
23619;BME280;18207;32.078;34.818;2023-04-06T13:38:44;101091.69;;;28.25;36.38